createdAt,value
2023-02-14T00:14:28.956Z,5.4
2023-02-14T00:29:30.800Z,1.8
2023-02-14T00:44:32.665Z,1.8
2023-02-14T00:59:34.509Z,0
2023-02-14T01:14:36.349Z,0
2023-02-14T01:29:38.224Z,0
2023-02-14T01:44:40.055Z,0
2023-02-14T01:59:41.935Z,0
2023-02-14T02:14:43.767Z,0
2023-02-14T02:29:45.617Z,0
2023-02-14T02:44:47.520Z,25.2
2023-02-14T02:59:49.344Z,0
2023-02-14T03:14:51.171Z,0
2023-02-14T03:29:53.014Z,0
2023-02-14T03:44:54.947Z,0
2023-02-14T03:59:56.838Z,0
2023-02-14T04:14:58.693Z,0
2023-02-14T04:30:00.581Z,0
2023-02-14T04:45:04.231Z,0
2023-02-14T05:00:06.316Z,0
2023-02-14T05:15:08.194Z,0
2023-02-14T05:30:10.155Z,0
2023-02-14T05:45:12.097Z,0
2023-02-14T06:00:13.937Z,0
2023-02-14T06:15:15.808Z,0
2023-02-14T06:30:17.699Z,0
2023-02-14T06:45:19.497Z,0
2023-02-14T07:00:21.407Z,0
2023-02-14T07:15:23.255Z,0
2023-02-14T07:30:25.231Z,0
2023-02-14T07:45:27.195Z,0
2023-02-14T08:00:29.048Z,0
2023-02-14T08:15:30.979Z,0
2023-02-14T08:30:32.949Z,0
2023-02-14T08:45:34.907Z,0
2023-02-14T09:00:36.909Z,0
2023-02-14T09:15:38.839Z,0
2023-02-14T09:30:40.805Z,0
2023-02-14T09:45:42.784Z,0
2023-02-14T10:00:44.759Z,0
2023-02-14T10:15:46.705Z,0
2023-02-14T10:30:48.845Z,0
2023-02-14T10:45:50.949Z,0
2023-02-14T11:00:53.114Z,0
2023-02-14T11:15:54.978Z,0
2023-02-14T11:30:57.022Z,0
2023-02-14T11:45:59.131Z,0
2023-02-14T12:01:01.475Z,0
2023-02-14T12:16:03.691Z,0
2023-02-14T12:31:05.729Z,0
2023-02-14T12:46:07.715Z,0
2023-02-14T13:01:09.640Z,0
2023-02-14T13:16:11.658Z,0
2023-02-14T13:31:13.727Z,0
2023-02-14T13:46:15.677Z,0
2023-02-14T14:01:17.687Z,0
2023-02-14T14:16:19.712Z,0
2023-02-14T14:31:21.814Z,0
2023-02-14T14:46:23.738Z,0
2023-02-14T15:01:25.705Z,0
2023-02-14T15:16:27.729Z,1.8
2023-02-14T15:31:29.773Z,1.8
2023-02-14T15:46:31.826Z,5.4
2023-02-14T16:01:33.860Z,7.2
2023-02-14T16:16:35.928Z,7.2
2023-02-14T16:31:38.201Z,9
2023-02-14T16:46:42.242Z,9
2023-02-14T17:01:45.123Z,10.8
2023-02-14T17:16:47.093Z,12.6
2023-02-14T17:31:49.280Z,43.2
2023-02-14T17:46:51.317Z,21.6
2023-02-14T18:01:53.392Z,25.2
2023-02-14T18:16:55.320Z,23.4
2023-02-14T18:31:57.306Z,25.2
2023-02-14T18:46:59.259Z,25.2
2023-02-14T19:02:01.254Z,36
2023-02-14T19:17:03.211Z,48.6
2023-02-14T19:32:05.215Z,54
2023-02-14T19:47:22.803Z,64.8
2023-02-14T20:02:29.060Z,55.8
2023-02-14T20:17:31.010Z,86.4
2023-02-14T20:32:32.893Z,55.8
2023-02-14T20:47:34.791Z,109.8
2023-02-14T21:02:36.722Z,32.4
2023-02-14T21:17:38.660Z,32.4
2023-02-14T21:32:40.598Z,41.4
2023-02-14T21:47:42.477Z,154.8
2023-02-14T22:02:44.425Z,124.2
2023-02-14T22:17:46.405Z,43.2
2023-02-14T22:32:48.324Z,55.8
2023-02-14T22:47:50.324Z,18
2023-02-14T23:02:52.244Z,14.4
2023-02-14T23:17:54.252Z,18
2023-02-14T23:32:56.162Z,14.4
2023-02-14T23:47:58.037Z,12.6
